Time;durP1;ratioP1;P1;durP2;ratioP2;P2;SDS_P1;SDS_P2;PMS_P1;PMS_P2;Temp;Humidity;BMP_temperature;BMP_pressure;BME280_temperature;BME280_humidity;BME280_pressure;Samples;Min_cycle;Max_cycle;Signal;HPM_P1;HPM_P2
2021/12/18 00:00:07;;;;;;;15.82;8.30;;;;;;;10.79;90.13;103522.97;7383415;19;20448;-67
2021/12/18 00:02:34;;;;;;;14.13;7.35;;;;;;;10.77;89.79;103530.97;7383917;19;20022;-69
2021/12/18 00:05:02;;;;;;;12.75;6.50;;;;;;;10.74;89.55;103520.63;7385841;19;20010;-67
2021/12/18 00:07:31;;;;;;;14.18;6.40;;;;;;;10.76;89.29;103529.28;7383746;19;20830;-67
2021/12/18 00:09:58;;;;;;;14.18;5.82;;;;;;;10.73;88.89;103519.75;7383707;19;20468;-67
2021/12/18 00:12:26;;;;;;;13.02;6.00;;;;;;;10.72;88.66;103519.84;7385781;19;20028;-67
2021/12/18 00:14:53;;;;;;;12.27;5.53;;;;;;;10.72;87.87;103517.22;7383183;19;20110;-67
2021/12/18 00:17:20;;;;;;;10.38;5.40;;;;;;;10.74;88.60;103515.34;7383322;19;20031;-69
2021/12/18 00:19:47;;;;;;;8.98;4.70;;;;;;;10.70;88.21;103512.06;7384978;19;20045;-68
2021/12/18 00:22:14;;;;;;;10.32;5.25;;;;;;;10.69;88.25;103507.72;7388016;19;20070;-68
2021/12/18 00:24:41;;;;;;;15.27;5.35;;;;;;;10.71;88.31;103505.84;7397016;19;20011;-69
2021/12/18 00:27:08;;;;;;;11.75;5.40;;;;;;;10.71;88.63;103505.00;7394832;19;20094;-68
2021/12/18 00:29:35;;;;;;;13.10;5.45;;;;;;;10.72;89.15;103507.53;7391507;19;20656;-67
2021/12/18 00:32:03;;;;;;;12.90;5.82;;;;;;;10.75;88.77;103500.41;7388145;19;20021;-64
2021/12/18 00:34:30;;;;;;;27.70;8.10;;;;;;;10.71;88.68;103495.31;7391243;19;20021;-66
2021/12/18 00:36:58;;;;;;;10.77;5.32;;;;;;;10.74;89.11;103494.28;7391395;19;20010;-67
2021/12/18 00:39:25;;;;;;;10.13;5.78;;;;;;;10.73;88.64;103503.97;7391216;19;20081;-68
2021/12/18 00:44:25;;;;;;;12.02;5.68;;;;;;;10.70;88.88;103512.06;7389007;19;20428;-65
2021/12/18 00:46:52;;;;;;;9.68;4.75;;;;;;;10.72;88.80;103501.41;7390370;19;20392;-68
2021/12/18 00:49:19;;;;;;;12.02;6.40;;;;;;;10.71;89.09;103505.84;7396364;19;20027;-65
2021/12/18 00:51:47;;;;;;;13.00;5.93;;;;;;;10.72;89.35;103488.25;7389605;19;20035;-66
2021/12/18 00:54:14;;;;;;;11.98;6.20;;;;;;;10.70;89.40;103495.41;7389190;19;20154;-66
2021/12/18 00:56:41;;;;;;;14.43;5.95;;;;;;;10.71;89.40;103492.69;7389366;19;20021;-68
2021/12/18 00:59:09;;;;;;;13.65;6.13;;;;;;;10.72;89.57;103489.09;7392716;19;20876;-66
2021/12/18 01:01:36;;;;;;;36.47;18.33;;;;;;;10.74;89.33;103494.28;7389202;19;20003;-66
2021/12/18 01:04:04;;;;;;;16.27;8.30;;;;;;;10.73;89.24;103484.69;7392672;19;20025;-66
2021/12/18 01:06:32;;;;;;;14.15;7.22;;;;;;;10.71;88.80;103481.31;7390618;19;20303;-68
2021/12/18 01:08:59;;;;;;;21.02;7.35;;;;;;;10.74;87.96;103478.47;7389362;19;20050;-67
2021/12/18 01:16:38;;;;;;;10.82;5.07;;;;;;;10.78;87.77;103481.78;7392729;19;20674;-68
2021/12/18 01:24:07;;;;;;;9.98;5.13;;;;;;;10.75;87.47;103484.59;7388888;19;20440;-67
2021/12/18 01:26:34;;;;;;;11.88;6.10;;;;;;;10.77;87.84;103494.09;7391605;19;20125;-68
2021/12/18 01:29:01;;;;;;;12.07;6.85;;;;;;;10.77;88.00;103495.91;7390126;19;20011;-67
2021/12/18 01:31:28;;;;;;;9.82;5.93;;;;;;;10.76;88.21;103491.56;7389776;19;20412;-68
2021/12/18 01:33:55;;;;;;;11.95;5.85;;;;;;;10.78;88.16;103492.31;7390917;19;20014;-68
2021/12/18 01:36:24;;;;;;;14.10;6.85;;;;;;;10.81;88.44;103503.53;7390115;19;20022;-69
2021/12/18 01:38:51;;;;;;;12.20;5.82;;;;;;;10.79;88.33;103500.13;7392928;19;20024;-68
2021/12/18 01:41:19;;;;;;;10.60;5.72;;;;;;;10.80;89.03;103498.34;7392342;19;20126;-68
2021/12/18 01:44:33;;;;;;;12.23;6.70;;;;;;;10.78;89.20;103493.16;7392091;19;20023;-67
2021/12/18 01:54:06;;;;;;;11.35;6.25;;;;;;;10.67;89.93;103504.31;7388175;19;20044;-68
2021/12/18 01:56:33;;;;;;;11.70;6.38;;;;;;;10.63;90.16;103502.78;7391215;19;20110;-68
2021/12/18 01:59:00;;;;;;;10.85;6.38;;;;;;;10.60;90.70;103513.50;7393044;19;20478;-66
2021/12/18 02:01:28;;;;;;;13.07;7.07;;;;;;;10.60;90.60;103502.97;7387530;19;20355;-67
2021/12/18 02:03:55;;;;;;;23.35;8.02;;;;;;;10.55;91.05;103512.06;7388203;19;20007;-67
2021/12/18 02:06:24;;;;;;;16.25;8.23;;;;;;;10.54;91.44;103508.56;7389027;19;20337;-67
2021/12/18 02:08:51;;;;;;;11.63;6.53;;;;;;;10.55;91.08;103502.38;7393242;19;20013;-66
2021/12/18 02:21:38;;;;;;;12.90;7.03;;;;;;;10.59;89.93;103493.38;7390960;19;20007;-68
2021/12/18 02:24:14;;;;;;;11.25;5.47;;;;;;;10.58;90.42;103503.97;7392017;19;20006;-67
2021/12/18 02:26:41;;;;;;;10.38;5.25;;;;;;;10.57;89.98;103497.00;7393275;19;20038;-68
2021/12/18 02:29:14;;;;;;;22.38;7.43;;;;;;;10.55;90.12;103497.13;7389632;19;20078;-66
2021/12/18 02:31:53;;;;;;;10.63;5.65;;;;;;;10.57;90.27;103503.13;7391848;19;20015;-68
2021/12/18 02:34:27;;;;;;;10.07;5.82;;;;;;;10.59;90.17;103497.78;7392526;19;20376;-67
2021/12/18 02:37:01;;;;;;;11.10;6.03;;;;;;;10.59;90.56;103501.28;7391899;19;20010;-68
2021/12/18 02:44:32;;;;;;;12.45;7.18;;;;;;;10.57;90.90;103495.22;7389339;19;20150;-67
2021/12/18 02:47:01;;;;;;;30.88;10.70;;;;;;;10.59;90.99;103495.16;7387287;19;20022;-68
2021/12/18 02:49:29;;;;;;;17.92;8.13;;;;;;;10.61;91.01;103486.25;7385914;19;20014;-66
2021/12/18 02:51:57;;;;;;;17.85;8.10;;;;;;;10.64;90.41;103493.09;7387872;19;20010;-67
2021/12/18 02:54:26;;;;;;;19.02;9.05;;;;;;;10.66;91.05;103488.63;7392893;19;20023;-67
2021/12/18 02:56:56;;;;;;;18.98;8.80;;;;;;;10.66;90.92;103486.84;7389825;19;20019;-66
2021/12/18 02:59:25;;;;;;;19.23;9.20;;;;;;;10.63;91.14;103478.25;7392198;19;20914;-66
2021/12/18 03:01:52;;;;;;;17.25;8.60;;;;;;;10.64;90.96;103488.69;7394174;19;20018;-66
2021/12/18 03:04:27;;;;;;;58.65;12.77;;;;;;;10.65;91.15;103489.53;7368492;19;20034;-67
2021/12/18 03:07:02;;;;;;;18.73;10.30;;;;;;;10.69;91.87;103485.78;7383411;19;20007;-67
2021/12/18 03:27:08;;;;;;;22.38;11.30;;;;;;;10.71;91.73;103482.16;7389656;19;20006;-67
2021/12/18 03:29:35;;;;;;;20.95;9.98;;;;;;;10.71;91.25;103489.19;7388723;19;20022;-67
2021/12/18 03:32:02;;;;;;;16.55;8.80;;;;;;;10.68;91.14;103481.47;7388616;19;20699;-68
2021/12/18 03:34:29;;;;;;;15.45;7.78;;;;;;;10.67;91.04;103487.66;7385684;19;20016;-67
2021/12/18 03:36:57;;;;;;;19.90;10.25;;;;;;;10.64;91.25;103490.47;7383712;19;20041;-66
2021/12/18 03:39:24;;;;;;;17.88;9.43;;;;;;;10.64;91.28;103487.84;7386428;19;20010;-66
2021/12/18 03:41:51;;;;;;;18.13;9.57;;;;;;;10.62;91.96;103487.06;7388109;19;20029;-66
2021/12/18 03:44:19;;;;;;;22.20;11.75;;;;;;;10.59;91.74;103493.38;7388158;19;20378;-66
2021/12/18 03:46:47;;;;;;;20.58;11.07;;;;;;;10.60;91.81;103495.06;7387825;19;20130;-68
2021/12/18 03:49:16;;;;;;;23.15;11.68;;;;;;;10.60;91.50;103481.91;7384307;19;20013;-67
2021/12/18 03:51:43;;;;;;;23.55;12.40;;;;;;;10.62;91.92;103489.69;7384305;19;20010;-67
2021/12/18 03:54:10;;;;;;;27.25;13.02;;;;;;;10.62;92.34;103490.56;7388459;19;20019;-65
2021/12/18 03:56:37;;;;;;;27.67;14.10;;;;;;;10.65;92.24;103495.66;7386333;19;20086;-67
2021/12/18 03:59:04;;;;;;;22.70;12.07;;;;;;;10.68;91.37;103492.84;7395021;19;20021;-67
2021/12/18 04:01:32;;;;;;;18.90;11.05;;;;;;;10.67;91.20;103482.38;7370660;19;20006;-67
2021/12/18 04:03:59;;;;;;;20.05;10.50;;;;;;;10.59;91.03;103480.22;7394907;19;20018;-66
2021/12/18 04:06:27;;;;;;;22.17;11.25;;;;;;;10.60;91.30;103481.06;7391496;19;20389;-68
2021/12/18 04:08:54;;;;;;;21.17;11.35;;;;;;;10.60;91.29;103478.44;7393009;19;20021;-66
2021/12/18 04:11:21;;;;;;;22.52;12.52;;;;;;;10.59;91.63;103474.94;7392612;19;20011;-67
2021/12/18 04:13:49;;;;;;;25.02;11.98;;;;;;;10.57;91.69;103471.53;7393992;19;20011;-67
2021/12/18 04:16:17;;;;;;;27.52;13.73;;;;;;;10.56;91.85;103472.50;7396874;19;20150;-68
2021/12/18 04:18:44;;;;;;;24.40;12.63;;;;;;;10.59;91.99;103468.81;7394547;19;20523;-65
2021/12/18 04:21:11;;;;;;;23.38;11.52;;;;;;;10.55;92.14;103473.44;7392810;19;20099;-67
2021/12/18 04:23:38;;;;;;;23.33;12.15;;;;;;;10.55;91.91;103468.16;7394085;19;20339;-67
2021/12/18 04:26:06;;;;;;;22.88;11.00;;;;;;;10.55;91.81;103476.06;7394894;19;20106;-67
2021/12/18 04:28:33;;;;;;;21.35;11.15;;;;;;;10.52;91.71;103472.72;7391631;19;20018;-72
2021/12/18 04:31:00;;;;;;;22.58;11.90;;;;;;;10.49;91.92;103483.44;7391972;19;20106;-66
2021/12/18 04:33:27;;;;;;;25.20;11.75;;;;;;;10.48;92.08;103479.09;7394502;19;20014;-66
2021/12/18 04:35:54;;;;;;;24.83;12.25;;;;;;;10.47;92.69;103485.31;7392274;19;20023;-68
2021/12/18 04:38:22;;;;;;;26.23;13.70;;;;;;;10.45;92.75;103481.94;7392865;19;20032;-67
2021/12/18 04:40:50;;;;;;;28.35;13.95;;;;;;;10.47;92.90;103482.66;7396406;19;20010;-67
2021/12/18 04:43:17;;;;;;;25.15;11.48;;;;;;;10.47;92.32;103491.41;7396178;19;20015;-67
2021/12/18 04:45:44;;;;;;;25.02;12.23;;;;;;;10.46;92.46;103484.47;7396187;19;20023;-65
2021/12/18 04:48:11;;;;;;;28.90;15.10;;;;;;;10.43;92.85;103483.78;7390329;19;20003;-71
2021/12/18 04:50:38;;;;;;;25.10;12.50;;;;;;;10.41;92.72;103496.19;7390588;19;20021;-69
2021/12/18 04:53:06;;;;;;;27.05;12.52;;;;;;;10.43;92.71;103494.31;7391372;19;20015;-67
2021/12/18 04:55:34;;;;;;;21.58;11.98;;;;;;;10.45;93.25;103500.34;7390902;19;20006;-66
2021/12/18 04:58:01;;;;;;;28.42;12.23;;;;;;;10.42;92.67;103495.25;7390984;19;20439;-66
2021/12/18 05:00:37;;;;;;;23.20;12.00;;;;;;;10.46;92.22;103504.69;7372064;19;20113;-68
2021/12/18 05:03:10;;;;;;;24.88;12.68;;;;;;;10.45;92.15;103493.31;7387498;19;20022;-66
2021/12/18 05:05:37;;;;;;;;;;;;;;;10.45;92.40;103493.31;7393325;19;20010;-68
2021/12/18 05:08:05;;;;;;;21.70;10.90;;;;;;;10.45;91.57;103493.31;7389784;19;20728;-66
2021/12/18 05:10:32;;;;;;;21.63;10.63;;;;;;;10.47;91.83;103499.31;7390053;19;20016;-67
2021/12/18 05:13:00;;;;;;;20.67;10.43;;;;;;;10.50;91.32;103496.53;7388731;19;20011;-66
2021/12/18 05:15:27;;;;;;;23.08;11.32;;;;;;;10.53;91.19;103491.06;7391549;19;20101;-66
2021/12/18 05:17:54;;;;;;;24.13;11.00;;;;;;;10.56;90.96;103490.94;7393181;19;20055;-65
2021/12/18 05:20:21;;;;;;;23.58;12.00;;;;;;;10.52;91.14;103492.00;7395232;19;20570;-66
2021/12/18 05:22:49;;;;;;;23.20;11.93;;;;;;;10.52;91.91;103483.25;7391866;19;20539;-67
2021/12/18 05:25:16;;;;;;;24.38;11.68;;;;;;;10.51;91.93;103487.69;7388901;19;20011;-66
2021/12/18 05:27:43;;;;;;;26.75;13.20;;;;;;;10.54;91.76;103489.31;7393791;19;20011;-67
2021/12/18 05:30:11;;;;;;;25.33;12.60;;;;;;;10.52;91.78;103492.00;7391931;19;20010;-68
2021/12/18 05:32:39;;;;;;;25.73;12.32;;;;;;;10.48;91.78;103493.13;7392542;19;20312;-66
2021/12/18 05:35:07;;;;;;;23.45;11.10;;;;;;;10.49;91.77;103491.34;7390179;19;20010;-67
2021/12/18 05:40:05;;;;;;;21.83;10.70;;;;;;;10.51;91.91;103485.06;7390590;19;20044;-66
2021/12/18 05:42:32;;;;;;;25.73;12.25;;;;;;;10.50;91.69;103472.84;7390626;19;20011;-68
2021/12/18 05:44:59;;;;;;;24.92;12.48;;;;;;;10.49;91.94;103483.44;7392626;19;20020;-66
2021/12/18 05:47:26;;;;;;;20.38;10.38;;;;;;;10.50;91.54;103471.97;7388499;19;20337;-67
2021/12/18 05:49:53;;;;;;;22.45;10.15;;;;;;;10.51;91.60;103478.97;7389974;19;20007;-66
2021/12/18 05:52:22;;;;;;;22.13;11.10;;;;;;;10.51;91.78;103474.53;7388952;19;20135;-66
2021/12/18 05:54:49;;;;;;;25.00;13.23;;;;;;;10.50;92.39;103488.63;7388172;19;20506;-66
2021/12/18 05:57:16;;;;;;;20.92;10.63;;;;;;;10.49;91.98;103486.06;7387561;19;20021;-70
2021/12/18 05:59:44;;;;;;;21.70;11.15;;;;;;;10.49;92.22;103489.56;7392795;19;20015;-65
2021/12/18 06:02:11;;;;;;;22.27;10.40;;;;;;;10.49;92.18;103486.06;7370193;19;20018;-67
2021/12/18 06:04:39;;;;;;;24.20;12.15;;;;;;;10.49;92.20;103492.19;7390854;19;20010;-68
2021/12/18 06:07:07;;;;;;;28.23;12.90;;;;;;;10.50;92.58;103493.03;7392335;19;20007;-65
2021/12/18 06:09:36;;;;;;;28.15;12.82;;;;;;;10.54;92.57;103489.31;7387286;19;20029;-67
2021/12/18 06:12:04;;;;;;;23.90;11.63;;;;;;;10.58;92.34;103490.81;7389556;19;20485;-66
2021/12/18 06:14:31;;;;;;;19.60;9.95;;;;;;;10.58;92.15;103496.09;7389963;19;20030;-67
2021/12/18 06:16:58;;;;;;;19.83;10.32;;;;;;;10.56;91.98;103501.47;7388822;19;20073;-68
2021/12/18 06:19:25;;;;;;;24.27;10.18;;;;;;;10.53;92.35;103501.59;7388003;19;20077;-67
2021/12/18 06:21:52;;;;;;;20.90;11.02;;;;;;;10.53;92.28;103500.75;7390753;19;20011;-66
2021/12/18 06:24:20;;;;;;;21.90;10.70;;;;;;;10.54;92.06;103503.31;7391129;19;20021;-67
2021/12/18 06:26:47;;;;;;;24.45;11.60;;;;;;;10.54;92.13;103497.19;7389538;19;20011;-67
2021/12/18 06:29:14;;;;;;;20.30;9.50;;;;;;;10.53;92.16;103495.50;7389687;19;20658;-66
2021/12/18 06:31:41;;;;;;;21.98;10.98;;;;;;;10.53;91.78;103503.38;7388674;19;20086;-67
2021/12/18 06:34:13;;;;;;;21.25;9.98;;;;;;;10.53;91.39;103491.06;7387972;19;20014;-66
2021/12/18 06:36:41;;;;;;;22.10;9.70;;;;;;;10.54;91.98;103492.78;7389858;19;20086;-67
2021/12/18 06:39:08;;;;;;;21.15;10.32;;;;;;;10.53;92.00;103493.72;7390422;19;20014;-65
2021/12/18 06:41:35;;;;;;;23.02;10.65;;;;;;;10.52;91.96;103492.00;7387295;19;20015;-67
2021/12/18 06:44:03;;;;;;;22.05;10.80;;;;;;;10.52;91.87;103496.41;7386833;19;20027;-67
2021/12/18 06:46:30;;;;;;;16.17;7.93;;;;;;;10.51;91.71;103495.59;7385800;19;20094;-67
2021/12/18 06:48:57;;;;;;;18.90;9.80;;;;;;;10.53;92.10;103498.13;7387013;19;20018;-66
2021/12/18 06:51:24;;;;;;;19.05;9.43;;;;;;;10.55;91.89;103499.75;7387183;19;20415;-67
2021/12/18 06:53:51;;;;;;;21.45;10.32;;;;;;;10.56;92.06;103493.56;7387882;19;20027;-67
2021/12/18 06:56:19;;;;;;;22.05;9.80;;;;;;;10.59;91.89;103503.06;7386428;19;20006;-65
2021/12/18 06:58:46;;;;;;;18.70;9.70;;;;;;;10.57;91.90;103505.75;7387730;19;20726;-66
2021/12/18 07:01:13;;;;;;;20.65;10.18;;;;;;;10.57;91.63;103505.75;7387046;19;20006;-65
2021/12/18 07:03:47;;;;;;;25.35;11.68;;;;;;;10.53;92.33;103493.72;7387981;19;20007;-66
2021/12/18 07:06:14;;;;;;;20.15;9.80;;;;;;;10.58;92.27;103506.63;7386816;19;20010;-68
2021/12/18 07:08:44;;;;;;;17.40;8.75;;;;;;;10.58;91.97;103494.31;7391601;19;20470;-66
2021/12/18 07:11:14;;;;;;;20.27;10.65;;;;;;;10.56;92.08;103496.19;7384633;19;20054;-67
2021/12/18 07:13:42;;;;;;;18.92;9.07;;;;;;;10.56;91.87;103493.56;7383920;19;20314;-66
2021/12/18 07:16:09;;;;;;;27.35;12.05;;;;;;;10.56;92.32;103497.97;7385215;19;20017;-68
2021/12/18 07:18:36;;;;;;;24.88;12.38;;;;;;;10.61;92.81;103491.50;7387744;19;20101;-66
2021/12/18 07:21:03;;;;;;;28.02;13.55;;;;;;;10.63;92.77;103499.31;7385040;19;20023;-67
2021/12/18 07:23:30;;;;;;;20.77;9.77;;;;;;;10.65;92.04;103503.56;7389546;19;20017;-66
2021/12/18 07:25:58;;;;;;;19.08;9.65;;;;;;;10.61;92.06;103493.28;7388898;19;20073;-67
2021/12/18 07:28:25;;;;;;;22.33;10.43;;;;;;;10.57;91.91;103497.00;7385585;19;20011;-68
2021/12/18 07:30:52;;;;;;;18.02;9.10;;;;;;;10.58;91.60;103503.97;7386072;19;20017;-67
2021/12/18 07:33:19;;;;;;;21.67;10.52;;;;;;;10.55;92.11;103499.75;7388606;19;20475;-66
2021/12/18 07:35:47;;;;;;;18.52;9.25;;;;;;;10.55;92.27;103505.03;7392667;19;20006;-66
2021/12/18 07:38:14;;;;;;;18.73;9.48;;;;;;;10.55;92.06;103497.13;7389553;19;20096;-67
2021/12/18 07:40:42;;;;;;;19.95;9.75;;;;;;;10.58;92.19;103496.94;7392161;19;20062;-67
2021/12/18 07:43:09;;;;;;;19.98;10.80;;;;;;;10.58;92.28;103496.94;7391418;19;20047;-67
2021/12/18 07:45:36;;;;;;;20.27;10.57;;;;;;;10.58;92.31;103496.09;7395508;19;20545;-67
2021/12/18 07:48:04;;;;;;;17.58;8.85;;;;;;;10.57;92.20;103505.75;7394253;19;20018;-68
2021/12/18 07:50:32;;;;;;;20.23;9.48;;;;;;;10.58;92.14;103503.97;7391263;19;20010;-66
2021/12/18 07:52:59;;;;;;;17.38;9.43;;;;;;;10.59;91.80;103505.69;7394880;19;20090;-68
2021/12/18 07:55:28;;;;;;;16.92;9.35;;;;;;;10.59;91.76;103508.31;7393300;19;20082;-68
2021/12/18 07:57:55;;;;;;;18.88;9.05;;;;;;;10.58;92.03;103503.97;7393050;19;20026;-67
2021/12/18 08:00:22;;;;;;;21.80;11.05;;;;;;;10.60;92.37;103507.38;7391967;19;20021;-68
2021/12/18 08:02:49;;;;;;;21.20;10.95;;;;;;;10.58;92.27;103504.84;7395183;19;20014;-67
2021/12/18 08:05:17;;;;;;;20.48;10.40;;;;;;;10.54;92.47;103502.47;7393852;19;20685;-66
2021/12/18 08:07:44;;;;;;;23.33;11.48;;;;;;;10.53;92.50;103506.88;7393990;19;20021;-68
2021/12/18 08:10:12;;;;;;;21.08;10.52;;;;;;;10.58;92.20;103514.50;7391297;19;20082;-69
2021/12/18 08:12:39;;;;;;;23.20;12.27;;;;;;;10.59;91.98;103511.81;7390224;19;20084;-67
2021/12/18 08:15:07;;;;;;;25.38;13.63;;;;;;;10.60;92.81;103517.91;7391132;19;20628;-67
2021/12/18 08:17:35;;;;;;;20.67;9.75;;;;;;;10.63;92.88;103515.09;7391025;19;20439;-67
2021/12/18 08:20:04;;;;;;;18.80;10.20;;;;;;;10.57;91.99;103518.91;7391009;19;20427;-67
2021/12/18 08:22:31;;;;;;;18.25;9.30;;;;;;;10.61;91.91;103514.34;7393164;19;20010;-66
2021/12/18 08:24:58;;;;;;;19.65;9.60;;;;;;;10.59;92.05;103513.59;7396426;19;20578;-67
2021/12/18 08:27:30;;;;;;;15.95;8.80;;;;;;;10.58;92.28;103517.13;7393239;19;20011;-66
2021/12/18 08:29:57;;;;;;;19.45;9.25;;;;;;;10.59;91.79;103524.97;7392740;19;20023;-67
2021/12/18 08:32:24;;;;;;;16.05;8.43;;;;;;;10.58;91.57;103519.78;7389966;19;20010;-67
2021/12/18 08:34:51;;;;;;;19.30;9.02;;;;;;;10.58;91.09;103520.63;7395164;19;20015;-66
2021/12/18 08:37:20;;;;;;;19.48;9.85;;;;;;;10.60;91.00;103523.19;7390686;19;20082;-66
2021/12/18 08:39:48;;;;;;;17.45;8.90;;;;;;;10.60;90.82;103529.31;7393018;19;20023;-66
2021/12/18 08:42:16;;;;;;;19.73;10.40;;;;;;;10.54;91.22;103529.63;7390840;19;20006;-67
2021/12/18 08:44:43;;;;;;;23.17;12.93;;;;;;;10.59;92.18;103532.88;7391595;19;20117;-67
2021/12/18 08:47:10;;;;;;;23.50;13.43;;;;;;;10.57;92.50;103539.97;7392957;19;20379;-66
2021/12/18 08:49:38;;;;;;;69.60;15.35;;;;;;;10.60;92.77;103531.94;7390662;19;20014;-66
2021/12/18 08:52:05;;;;;;;27.00;13.57;;;;;;;10.66;93.66;103536.88;7392630;19;20025;-70
2021/12/18 08:54:32;;;;;;;22.77;12.43;;;;;;;10.67;92.48;103549.06;7389314;19;20040;-66
2021/12/18 08:57:08;;;;;;;24.38;12.68;;;;;;;10.67;92.03;103535.91;7392931;19;20383;-69
2021/12/18 08:59:37;;;;;;;23.80;12.32;;;;;;;10.67;91.62;103538.53;7395190;19;20077;-67
2021/12/18 09:02:07;;;;;;;21.52;12.15;;;;;;;10.68;91.22;103534.13;7389843;19;20180;-66
2021/12/18 09:04:34;;;;;;;18.30;9.93;;;;;;;10.67;91.21;103548.22;7389300;19;20593;-66
2021/12/18 09:07:03;;;;;;;21.38;11.35;;;;;;;10.63;90.96;103546.69;7395542;19;20038;-66
2021/12/18 09:09:36;;;;;;;22.08;11.07;;;;;;;10.67;90.80;103542.94;7389023;19;20003;-67
2021/12/18 09:12:04;;;;;;;20.88;10.23;;;;;;;10.68;90.75;103534.13;7389052;19;20010;-68
2021/12/18 09:14:31;;;;;;;24.02;11.95;;;;;;;10.66;90.71;103542.13;7390201;19;20010;-67
2021/12/18 09:16:58;;;;;;;21.38;11.35;;;;;;;10.67;91.23;103540.31;7389648;19;20010;-68
2021/12/18 09:19:26;;;;;;;17.15;9.25;;;;;;;10.66;90.50;103533.38;7389120;19;20630;-67
2021/12/18 09:21:55;;;;;;;19.20;10.15;;;;;;;10.62;90.37;103532.69;7388758;19;20086;-67
2021/12/18 09:24:22;;;;;;;18.33;10.07;;;;;;;10.63;90.42;103528.25;7390639;19;20011;-68
2021/12/18 09:26:50;;;;;;;19.42;9.98;;;;;;;10.66;90.56;103536.00;7389606;19;20329;-65
2021/12/18 09:29:18;;;;;;;20.02;10.38;;;;;;;10.68;90.10;103527.06;7391344;19;20017;-66
2021/12/18 09:31:46;;;;;;;18.70;10.75;;;;;;;10.67;90.55;103525.38;7388224;19;20027;-68
2021/12/18 09:34:13;;;;;;;20.92;11.05;;;;;;;10.65;90.74;103531.69;7388032;19;20017;-66
2021/12/18 09:36:40;;;;;;;19.00;9.93;;;;;;;10.66;90.73;103536.00;7388025;19;20073;-67
2021/12/18 09:39:08;;;;;;;22.48;12.38;;;;;;;10.65;90.76;103527.25;7388258;19;20500;-66
2021/12/18 09:41:36;;;;;;;25.63;13.52;;;;;;;10.65;90.74;103536.94;7390984;19;20092;-67
2021/12/18 09:44:04;;;;;;;21.40;10.07;;;;;;;10.65;90.81;103547.47;7390346;19;20078;-67
2021/12/18 09:46:31;;;;;;;19.45;9.98;;;;;;;10.67;90.93;103549.06;7389863;19;20010;-67
2021/12/18 09:48:59;;;;;;;18.40;10.20;;;;;;;10.68;90.56;103540.25;7387767;19;20018;-66
2021/12/18 09:51:27;;;;;;;20.23;11.35;;;;;;;10.69;90.43;103541.09;7390200;19;20026;-66
2021/12/18 09:53:55;;;;;;;20.08;10.15;;;;;;;10.69;90.20;103546.34;7388564;19;20464;-69
2021/12/18 09:56:24;;;;;;;22.48;11.25;;;;;;;10.72;90.04;103546.16;7386132;19;20010;-68
2021/12/18 09:58:52;;;;;;;49.70;15.20;;;;;;;10.73;90.47;103540.84;7388097;19;20218;-66
2021/12/18 10:01:20;;;;;;;21.63;12.45;;;;;;;10.77;90.78;103540.69;7387217;19;20029;-68
2021/12/18 10:03:53;;;;;;;22.95;11.57;;;;;;;10.80;90.47;103538.72;7389062;19;20019;-67
2021/12/18 10:06:28;;;;;;;25.98;11.82;;;;;;;10.80;90.21;103545.75;7390858;19;20007;-67
2021/12/18 10:08:55;;;;;;;20.63;11.30;;;;;;;10.85;90.01;103543.72;7391466;19;20362;-67
2021/12/18 10:11:22;;;;;;;19.42;10.70;;;;;;;10.78;90.11;103550.25;7387262;19;20011;-68
2021/12/18 10:13:55;;;;;;;26.88;13.18;;;;;;;10.82;90.69;103544.72;7385104;19;20011;-68
2021/12/18 10:16:26;;;;;;;19.00;10.85;;;;;;;10.86;89.79;103537.50;7387355;19;20011;-67
2021/12/18 10:18:57;;;;;;;22.17;11.32;;;;;;;10.85;89.38;103549.84;7386777;19;20013;-67
2021/12/18 10:21:27;;;;;;;17.65;9.80;;;;;;;10.84;89.71;103547.28;7386833;19;20021;-68
2021/12/18 10:23:57;;;;;;;18.40;10.07;;;;;;;10.85;89.23;103554.25;7389043;19;20006;-67
2021/12/18 10:26:31;;;;;;;15.07;8.40;;;;;;;10.86;88.96;103553.31;7386342;19;20083;-67
2021/12/18 10:28:58;;;;;;;16.38;9.50;;;;;;;10.86;89.15;103548.06;7387314;19;20116;-66
2021/12/18 10:31:31;;;;;;;15.10;8.75;;;;;;;10.87;89.15;103550.56;7387183;19;20091;-66
2021/12/18 10:34:15;;;;;;;17.75;9.57;;;;;;;10.87;88.72;103541.84;7385578;19;20020;-66
2021/12/18 10:37:05;;;;;;;24.35;11.82;;;;;;;10.90;89.25;103536.41;7388157;19;20105;-67
2021/12/18 10:39:33;;;;;;;16.58;8.98;;;;;;;10.89;88.93;103545.22;7387535;19;20037;-67
2021/12/18 10:42:07;;;;;;;23.10;11.77;;;;;;;10.89;89.86;103540.81;7388296;19;20467;-66
2021/12/18 10:44:34;;;;;;;24.88;13.32;;;;;;;10.96;89.46;103541.31;7389280;19;20535;-68
2021/12/18 10:47:01;;;;;;;31.98;16.02;;;;;;;10.90;89.18;103537.25;7386568;19;20082;-67
2021/12/18 10:49:38;;;;;;;19.67;10.60;;;;;;;10.90;89.08;103539.03;7387854;19;20496;-69
2021/12/18 10:52:06;;;;;;;20.95;9.95;;;;;;;10.89;89.08;103543.44;7387698;19;20013;-67
2021/12/18 10:54:36;;;;;;;18.08;9.82;;;;;;;10.88;89.24;103538.25;7387182;19;20338;-68
2021/12/18 10:57:03;;;;;;;17.17;9.95;;;;;;;10.91;88.95;103543.38;7390353;19;20015;-66
2021/12/18 10:59:36;;;;;;;18.60;9.50;;;;;;;10.90;88.78;103539.03;7391413;19;20807;-68
2021/12/18 11:02:10;;;;;;;20.35;10.90;;;;;;;10.89;89.68;103534.69;7385901;19;20011;-67
2021/12/18 11:04:39;;;;;;;18.75;9.35;;;;;;;10.93;88.80;103536.22;7385192;19;20034;-65
2021/12/18 11:07:13;;;;;;;21.95;10.30;;;;;;;10.93;89.53;103536.22;7389846;19;20037;-66
2021/12/18 11:09:45;;;;;;;20.67;11.40;;;;;;;10.91;89.28;103541.59;7385124;19;20010;-66
2021/12/18 11:14:45;;;;;;;15.93;9.70;;;;;;;10.95;89.38;103529.06;7384450;19;20042;-68
2021/12/18 11:17:14;;;;;;;23.98;13.20;;;;;;;10.93;89.34;103529.16;7384539;19;20662;-66
2021/12/18 11:19:43;;;;;;;25.00;13.18;;;;;;;10.95;89.99;103526.44;7386348;19;20017;-65
2021/12/18 11:22:14;;;;;;;21.20;11.90;;;;;;;10.94;89.27;103522.97;7387063;19;20007;-67
2021/12/18 11:25:21;;;;;;;17.88;9.90;;;;;;;10.96;88.76;103520.25;7389804;19;20582;-68
2021/12/18 11:28:00;;;;;;;21.23;11.65;;;;;;;10.96;88.46;103526.38;7390881;19;20507;-67
2021/12/18 11:30:27;;;;;;;23.55;12.40;;;;;;;10.98;88.74;103518.34;7386741;19;20022;-66
2021/12/18 11:32:55;;;;;;;18.40;9.77;;;;;;;10.93;88.34;103520.41;7385206;19;20590;-66
2021/12/18 11:35:23;;;;;;;17.52;10.52;;;;;;;10.94;88.02;103515.06;7386916;19;20047;-68
2021/12/18 11:37:56;;;;;;;17.08;9.60;;;;;;;10.96;87.72;103523.72;7385322;19;20447;-67
2021/12/18 11:40:29;;;;;;;18.27;10.18;;;;;;;10.93;87.94;103515.13;7386745;19;20019;-67
2021/12/18 11:42:56;;;;;;;16.33;10.10;;;;;;;10.95;88.12;103518.53;7388214;19;20018;-67
2021/12/18 11:45:30;;;;;;;20.08;11.25;;;;;;;10.94;87.94;103520.31;7387540;19;20078;-67
2021/12/18 11:48:00;;;;;;;21.35;11.70;;;;;;;10.99;88.13;103512.16;7388101;19;20373;-72
2021/12/18 11:50:32;;;;;;;19.75;11.07;;;;;;;11.00;87.98;103514.72;7383737;19;20011;-67
2021/12/18 11:53:05;;;;;;;18.00;10.67;;;;;;;10.95;88.33;103518.53;7386622;19;20059;-66
2021/12/18 11:55:38;;;;;;;16.80;9.45;;;;;;;10.94;87.96;103515.06;7382389;19;20346;-66
2021/12/18 11:58:11;;;;;;;18.27;10.02;;;;;;;10.94;88.33;103511.56;7388401;19;20007;-69
2021/12/18 12:00:45;;;;;;;19.65;11.02;;;;;;;10.93;88.06;103509.88;7384329;19;20022;-67
2021/12/18 12:03:27;;;;;;;20.08;10.93;;;;;;;10.94;88.34;103527.38;7385955;19;20527;-67
2021/12/18 12:05:56;;;;;;;18.65;9.90;;;;;;;10.91;87.67;103502.06;7386762;19;20015;-67
2021/12/18 12:08:30;;;;;;;18.42;10.02;;;;;;;10.90;88.11;103510.06;7387918;19;20035;-68
2021/12/18 12:11:03;;;;;;;22.40;11.75;;;;;;;10.88;88.18;103502.22;7382965;19;20007;-66
2021/12/18 12:13:37;;;;;;;20.30;10.10;;;;;;;10.91;88.07;103495.97;7383400;19;20010;-66
2021/12/18 12:16:04;;;;;;;23.10;11.35;;;;;;;10.93;88.11;103499.34;7384508;19;20006;-67